createdAt,value
2016-03-02T00:00:25.994Z,0
2016-03-02T00:01:25.965Z,0
2016-03-02T00:02:25.999Z,0
2016-03-02T00:03:25.971Z,0
2016-03-02T00:04:26.004Z,0
2016-03-02T00:05:25.836Z,0
2016-03-02T00:06:25.995Z,0
2016-03-02T00:07:26.029Z,0
2016-03-02T00:08:25.984Z,0
2016-03-02T00:09:26.034Z,0
2016-03-02T00:10:26.005Z,0
2016-03-02T00:11:26.039Z,0
2016-03-02T00:12:26.010Z,0
2016-03-02T00:13:26.061Z,0
2016-03-02T00:14:26.031Z,0
2016-03-02T00:15:26.066Z,0
2016-03-02T00:16:26.053Z,0
2016-03-02T00:17:26.071Z,0
2016-03-02T00:18:26.074Z,0
2016-03-02T00:19:26.077Z,0
2016-03-02T00:20:26.111Z,0
2016-03-02T00:21:26.082Z,0
2016-03-02T00:22:26.084Z,0
2016-03-02T00:23:26.088Z,0
2016-03-02T00:24:26.105Z,0
2016-03-02T00:25:26.093Z,0
2016-03-02T00:26:26.143Z,0
2016-03-02T00:27:26.113Z,0
2016-03-02T00:28:26.148Z,0
2016-03-02T00:29:26.118Z,0
2016-03-02T00:30:26.138Z,0
2016-03-02T00:31:26.140Z,0
2016-03-02T00:32:26.127Z,0
2016-03-02T00:33:26.161Z,0
2016-03-02T00:34:26.148Z,0
2016-03-02T00:35:26.167Z,0
2016-03-02T00:36:26.170Z,0
2016-03-02T00:37:26.173Z,0
2016-03-02T00:38:26.175Z,0
2016-03-02T00:39:26.192Z,0
2016-03-02T00:40:26.196Z,0
2016-03-02T00:41:26.198Z,0
2016-03-02T00:42:26.217Z,0
2016-03-02T00:43:26.219Z,0
2016-03-02T00:44:26.237Z,0
2016-03-02T00:45:26.224Z,0
2016-03-02T00:46:26.211Z,0
2016-03-02T00:47:26.230Z,0
2016-03-02T00:48:26.233Z,0
2016-03-02T00:49:26.250Z,0
2016-03-02T00:50:26.253Z,0
2016-03-02T00:51:26.256Z,0
2016-03-02T00:52:26.258Z,0
2016-03-02T00:53:26.261Z,0
2016-03-02T00:54:26.279Z,0
2016-03-02T00:55:26.267Z,0
2016-03-02T00:56:26.285Z,0
2016-03-02T00:57:26.272Z,0
2016-03-02T00:58:26.291Z,0
2016-03-02T00:59:26.293Z,0
2016-03-02T01:00:26.312Z,0
2016-03-02T01:01:26.299Z,0
2016-03-02T01:02:26.365Z,0
2016-03-02T01:03:26.320Z,0
2016-03-02T01:04:26.337Z,0
2016-03-02T01:05:26.341Z,0
2016-03-02T01:06:26.328Z,0
2016-03-02T01:07:26.362Z,0
2016-03-02T01:08:26.411Z,0
2016-03-02T01:09:26.367Z,0
2016-03-02T01:10:26.386Z,0
2016-03-02T01:11:26.372Z,0
2016-03-02T01:12:26.376Z,0
2016-03-02T01:13:26.378Z,0
2016-03-02T01:14:26.380Z,0
2016-03-02T01:15:26.445Z,0
2016-03-02T01:16:26.402Z,0
2016-03-02T01:17:26.389Z,0
2016-03-02T01:18:26.439Z,0
2016-03-02T01:19:26.425Z,0
2016-03-02T01:20:26.444Z,0
2016-03-02T01:21:26.430Z,0
2016-03-02T01:22:26.418Z,0
2016-03-02T01:23:26.436Z,0
2016-03-02T01:24:26.454Z,0
2016-03-02T01:25:26.457Z,0
2016-03-02T01:26:26.507Z,0
2016-03-02T01:27:26.477Z,0
2016-03-02T01:28:26.480Z,0
2016-03-02T01:29:26.483Z,0
2016-03-02T01:30:26.315Z,0
2016-03-02T01:31:26.488Z,0
2016-03-02T01:32:26.491Z,0
2016-03-02T01:33:26.494Z,0
2016-03-02T01:34:26.512Z,0
2016-03-02T01:35:26.499Z,0
2016-03-02T01:36:26.518Z,0
2016-03-02T01:37:26.505Z,0
2016-03-02T01:38:26.539Z,0
2016-03-02T01:39:26.526Z,0
2016-03-02T01:40:26.560Z,0
2016-03-02T01:41:26.531Z,0
2016-03-02T01:42:26.550Z,0
2016-03-02T01:43:26.553Z,0
2016-03-02T01:44:26.555Z,0
2016-03-02T01:45:26.620Z,0
2016-03-02T01:46:26.591Z,0
2016-03-02T01:47:26.595Z,0
2016-03-02T01:48:26.581Z,0
2016-03-02T01:49:26.616Z,0
2016-03-02T01:50:26.603Z,0
2016-03-02T01:51:26.589Z,0
2016-03-02T01:52:26.560Z,0
2016-03-02T01:53:26.595Z,0
2016-03-02T01:54:26.629Z,0
2016-03-02T01:55:26.600Z,0
2016-03-02T01:56:26.634Z,0
2016-03-02T01:57:26.621Z,0
2016-03-02T01:58:26.640Z,0
2016-03-02T01:59:26.657Z,0
2016-03-02T02:00:26.661Z,0
2016-03-02T02:01:26.663Z,0
2016-03-02T02:02:26.650Z,0
2016-03-02T02:03:26.668Z,0
2016-03-02T02:04:26.671Z,0
2016-03-02T02:05:26.377Z,0
2016-03-02T02:06:26.702Z,0
2016-03-02T02:07:26.689Z,0
2016-03-02T02:08:26.708Z,0
2016-03-02T02:09:26.694Z,0
2016-03-02T02:10:26.713Z,0
2016-03-02T02:11:26.700Z,0
2016-03-02T02:12:26.733Z,0
2016-03-02T02:13:26.721Z,0
2016-03-02T02:14:26.724Z,0
2016-03-02T02:15:26.742Z,0
2016-03-02T02:16:26.729Z,0
2016-03-02T02:17:26.763Z,0
2016-03-02T02:18:26.750Z,0
2016-03-02T02:19:26.768Z,0
2016-03-02T02:20:26.771Z,0
2016-03-02T02:21:26.805Z,0
2016-03-02T02:22:26.777Z,0
2016-03-02T02:23:26.841Z,0
2016-03-02T02:24:26.782Z,0
2016-03-02T02:25:26.847Z,0
2016-03-02T02:26:26.802Z,0
2016-03-02T02:27:26.821Z,0
2016-03-02T02:28:26.808Z,0
2016-03-02T02:29:26.826Z,0
2016-03-02T02:30:26.829Z,0
2016-03-02T02:31:26.847Z,0
2016-03-02T02:32:26.835Z,0
2016-03-02T02:33:26.853Z,0
2016-03-02T02:34:26.856Z,0
2016-03-02T02:35:26.906Z,0
2016-03-02T02:36:26.861Z,0
2016-03-02T02:37:26.878Z,0
2016-03-02T02:38:26.882Z,0
2016-03-02T02:39:26.869Z,0
2016-03-02T02:40:26.903Z,0
2016-03-02T02:41:26.874Z,0
2016-03-02T02:42:26.767Z,0
2016-03-02T02:43:26.895Z,0
2016-03-02T02:44:26.929Z,0
2016-03-02T02:45:26.917Z,0
2016-03-02T02:46:26.935Z,0
2016-03-02T02:47:26.921Z,0
2016-03-02T02:48:26.924Z,0
2016-03-02T02:49:26.911Z,0
2016-03-02T02:50:26.977Z,0
2016-03-02T02:51:26.963Z,0
2016-03-02T02:52:26.951Z,0
2016-03-02T02:53:26.969Z,0
2016-03-02T02:54:26.971Z,0
2016-03-02T02:55:26.991Z,0
2016-03-02T02:56:26.993Z,0
2016-03-02T02:57:27.011Z,0
2016-03-02T02:58:26.982Z,0
2016-03-02T02:59:27.001Z,0
2016-03-02T03:00:27.004Z,0
2016-03-02T03:01:27.021Z,0
2016-03-02T03:02:27.009Z,0
2016-03-02T03:03:27.012Z,0
2016-03-02T03:04:27.029Z,0
2016-03-02T03:05:26.970Z,0
2016-03-02T03:06:27.035Z,0
2016-03-02T03:07:27.023Z,0
2016-03-02T03:08:27.056Z,0
2016-03-02T03:09:27.059Z,0
2016-03-02T03:10:27.078Z,0
2016-03-02T03:11:27.048Z,0
2016-03-02T03:12:27.066Z,0
2016-03-02T03:13:27.070Z,0
2016-03-02T03:14:27.103Z,0
2016-03-02T03:15:47.328Z,0
2016-03-02T03:16:27.109Z,0
2016-03-02T03:17:27.096Z,0
2016-03-02T03:18:27.130Z,0
2016-03-02T03:19:27.101Z,0
2016-03-02T03:20:27.183Z,0
2016-03-02T03:21:27.122Z,0
2016-03-02T03:22:27.031Z,0
2016-03-02T03:23:27.159Z,0
2016-03-02T03:24:27.115Z,0
2016-03-02T03:25:27.149Z,0
2016-03-02T03:26:27.136Z,0
2016-03-02T03:27:27.171Z,0
2016-03-02T03:28:27.173Z,0
2016-03-02T03:29:27.190Z,0
2016-03-02T03:30:27.225Z,0
2016-03-02T03:31:27.181Z,0
2016-03-02T03:32:27.184Z,0
2016-03-02T03:33:27.217Z,0
2016-03-02T03:34:27.204Z,0
2016-03-02T03:35:27.082Z,0
2016-03-02T03:36:27.209Z,0
2016-03-02T03:37:27.244Z,0
2016-03-02T03:38:27.215Z,0
2016-03-02T03:39:27.248Z,0
2016-03-02T03:40:27.236Z,0
2016-03-02T03:41:27.270Z,0
2016-03-02T03:42:27.241Z,0
2016-03-02T03:43:27.259Z,0
2016-03-02T03:44:27.247Z,0
2016-03-02T03:45:27.281Z,0
2016-03-02T03:46:27.267Z,0
2016-03-02T03:47:27.286Z,0
2016-03-02T03:48:27.273Z,0
2016-03-02T03:49:27.338Z,0
2016-03-02T03:50:27.294Z,0
2016-03-02T03:51:27.296Z,0
2016-03-02T03:52:27.299Z,0
2016-03-02T03:53:27.365Z,0
2016-03-02T03:54:27.304Z,0
2016-03-02T03:55:27.324Z,0
2016-03-02T03:56:27.310Z,0
2016-03-02T03:57:27.329Z,0
2016-03-02T03:58:27.332Z,0
2016-03-02T03:59:27.349Z,0
2016-03-02T04:00:27.352Z,0
2016-03-02T04:01:27.355Z,0
2016-03-02T04:02:27.358Z,0
2016-03-02T04:03:27.376Z,0
2016-03-02T04:04:27.394Z,0
2016-03-02T04:05:27.382Z,0
2016-03-02T04:06:27.384Z,0
2016-03-02T04:07:27.387Z,0
2016-03-02T04:08:27.389Z,0
2016-03-02T04:09:27.408Z,0
2016-03-02T04:10:27.411Z,0
2016-03-02T04:11:27.414Z,0
2016-03-02T04:12:27.401Z,0
2016-03-02T04:13:27.419Z,0
2016-03-02T04:14:27.421Z,0
2016-03-02T04:15:27.424Z,0
2016-03-02T04:16:27.427Z,0
2016-03-02T04:17:27.460Z,0
2016-03-02T04:18:27.448Z,0
2016-03-02T04:19:27.466Z,0
2016-03-02T04:20:27.468Z,0
2016-03-02T04:21:27.455Z,0
2016-03-02T04:22:27.474Z,0
2016-03-02T04:23:27.477Z,0
2016-03-02T04:24:27.479Z,0
2016-03-02T04:25:27.497Z,0
2016-03-02T04:26:27.500Z,0
2016-03-02T04:27:27.502Z,0
2016-03-02T04:28:27.506Z,0
2016-03-02T04:29:27.493Z,0
2016-03-02T04:30:27.527Z,0
2016-03-02T04:31:27.513Z,0
2016-03-02T04:32:27.516Z,0
2016-03-02T04:33:27.519Z,0
2016-03-02T04:34:27.537Z,0
2016-03-02T04:35:27.540Z,0
2016-03-02T04:36:27.559Z,0
2016-03-02T04:37:27.561Z,0
2016-03-02T04:38:27.548Z,0
2016-03-02T04:39:27.582Z,0
2016-03-02T04:40:27.585Z,0
2016-03-02T04:41:27.431Z,0
2016-03-02T04:42:27.606Z,0
2016-03-02T04:43:27.593Z,0
2016-03-02T04:44:27.596Z,0
2016-03-02T04:45:27.598Z,0
2016-03-02T04:46:27.601Z,0
2016-03-02T04:47:27.603Z,0
2016-03-02T04:48:27.606Z,0
2016-03-02T04:49:27.625Z,0
2016-03-02T04:50:27.627Z,0
2016-03-02T04:51:27.661Z,0
2016-03-02T04:52:27.632Z,0
2016-03-02T04:53:27.652Z,0
2016-03-02T04:54:27.654Z,0
2016-03-02T04:55:27.671Z,0
2016-03-02T04:56:27.660Z,0
2016-03-02T04:57:27.677Z,0
2016-03-02T04:58:27.665Z,0
2016-03-02T04:59:27.699Z,0
2016-03-02T05:00:27.670Z,0
2016-03-02T05:01:27.704Z,0
2016-03-02T05:02:27.690Z,0
2016-03-02T05:03:27.710Z,0
2016-03-02T05:04:27.712Z,0
2016-03-02T05:05:27.730Z,0
2016-03-02T05:06:27.717Z,0
2016-03-02T05:07:27.751Z,0
2016-03-02T05:08:27.738Z,0
2016-03-02T05:09:27.772Z,0
2016-03-02T05:10:27.744Z,0
2016-03-02T05:11:27.762Z,0
2016-03-02T05:12:27.749Z,0
2016-03-02T05:13:27.784Z,0
2016-03-02T05:14:27.770Z,0
2016-03-02T05:15:27.804Z,0
2016-03-02T05:16:27.759Z,0
2016-03-02T05:17:27.637Z,0
2016-03-02T05:18:27.811Z,0
2016-03-02T05:19:27.799Z,0
2016-03-02T05:20:27.802Z,0
2016-03-02T05:21:27.820Z,0
2016-03-02T05:22:27.822Z,0
2016-03-02T05:23:27.825Z,0
2016-03-02T05:24:27.813Z,0
2016-03-02T05:25:27.831Z,0
2016-03-02T05:26:27.833Z,0
2016-03-02T05:27:27.852Z,0
2016-03-02T05:28:27.839Z,0
2016-03-02T05:29:27.857Z,0
2016-03-02T05:30:27.860Z,0
2016-03-02T05:31:27.879Z,0
2016-03-02T05:32:27.896Z,0
2016-03-02T05:33:27.884Z,0
2016-03-02T05:34:27.887Z,0
2016-03-02T05:35:27.874Z,0
2016-03-02T05:36:27.892Z,0
2016-03-02T05:37:27.894Z,0
2016-03-02T05:38:27.913Z,0
2016-03-02T05:39:27.915Z,0
2016-03-02T05:40:27.918Z,0
2016-03-02T05:41:27.937Z,0
2016-03-02T05:42:27.954Z,0
2016-03-02T05:43:27.926Z,0
2016-03-02T05:44:27.929Z,0
2016-03-02T05:45:27.947Z,0
2016-03-02T05:46:27.950Z,0
2016-03-02T05:47:27.952Z,0
2016-03-02T05:48:27.970Z,0
2016-03-02T05:49:27.973Z,0
2016-03-02T05:50:27.960Z,0
2016-03-02T05:51:27.964Z,0
2016-03-02T05:52:27.825Z,0
2016-03-02T05:53:27.969Z,0
2016-03-02T05:54:28.003Z,0
2016-03-02T05:55:28.005Z,0
2016-03-02T05:56:27.852Z,0
2016-03-02T05:57:28.026Z,0
2016-03-02T05:58:28.013Z,0
2016-03-02T05:59:28.016Z,0
2016-03-02T06:00:28.034Z,0
2016-03-02T06:01:28.038Z,0
2016-03-02T06:02:28.055Z,0
2016-03-02T06:03:28.057Z,0
2016-03-02T06:04:28.045Z,0
2016-03-02T06:05:27.610Z,0
2016-03-02T06:06:28.066Z,0
2016-03-02T06:07:28.068Z,0
2016-03-02T06:08:28.087Z,0
2016-03-02T06:09:28.106Z,0
2016-03-02T06:10:28.123Z,0
2016-03-02T06:11:28.112Z,0
2016-03-02T06:12:28.129Z,0
2016-03-02T06:13:28.101Z,0
2016-03-02T06:14:28.103Z,0
2016-03-02T06:15:28.106Z,0
2016-03-02T06:16:28.125Z,0
2016-03-02T06:17:28.142Z,0
2016-03-02T06:18:28.145Z,0
2016-03-02T06:19:28.148Z,0
2016-03-02T06:20:28.150Z,0
2016-03-02T06:21:28.153Z,0
2016-03-02T06:22:28.156Z,0
2016-03-02T06:23:28.174Z,0
2016-03-02T06:24:28.177Z,0
2016-03-02T06:25:28.180Z,0
2016-03-02T06:26:28.197Z,0
2016-03-02T06:27:28.200Z,0
2016-03-02T06:28:28.187Z,0
2016-03-02T06:29:28.191Z,0
2016-03-02T06:30:28.208Z,0
2016-03-02T06:31:28.211Z,0
2016-03-02T06:32:28.230Z,0
2016-03-02T06:33:28.232Z,0
2016-03-02T06:34:28.235Z,0
2016-03-02T06:35:28.238Z,0
2016-03-02T06:36:28.240Z,0
2016-03-02T06:37:28.243Z,0
2016-03-02T06:38:28.262Z,0
2016-03-02T06:39:28.249Z,0
2016-03-02T06:40:28.251Z,0
2016-03-02T06:41:28.270Z,0
2016-03-02T06:42:28.272Z,0
2016-03-02T06:43:28.291Z,0
2016-03-02T06:44:28.293Z,0
2016-03-02T06:45:28.358Z,5
2016-03-02T06:46:28.298Z,5
2016-03-02T06:47:28.286Z,5
2016-03-02T06:48:28.320Z,5
2016-03-02T06:49:28.323Z,5
2016-03-02T06:50:28.325Z,5
2016-03-02T06:51:28.327Z,5
2016-03-02T06:52:28.330Z,5
2016-03-02T06:53:28.333Z,5
2016-03-02T06:54:28.336Z,5
2016-03-02T06:55:28.355Z,5
2016-03-02T06:56:28.357Z,5
2016-03-02T06:57:28.375Z,5
2016-03-02T06:58:28.362Z,5
2016-03-02T06:59:28.381Z,5
2016-03-02T07:00:28.368Z,5
2016-03-02T07:01:28.371Z,5
2016-03-02T07:02:28.373Z,5
2016-03-02T07:03:28.392Z,5
2016-03-02T07:04:28.410Z,5
2016-03-02T07:05:28.412Z,5
2016-03-02T07:06:28.415Z,5
2016-03-02T07:07:28.433Z,5
2016-03-02T07:08:28.421Z,5
2016-03-02T07:09:28.424Z,5
2016-03-02T07:10:28.441Z,5
2016-03-02T07:11:28.444Z,5
2016-03-02T07:12:28.446Z,5
2016-03-02T07:13:28.450Z,5
2016-03-02T07:14:28.452Z,5
2016-03-02T07:15:28.486Z,5
2016-03-02T07:16:28.505Z,5
2016-03-02T07:17:28.476Z,5
2016-03-02T07:18:28.479Z,5
2016-03-02T07:19:28.497Z,5
2016-03-02T07:20:28.500Z,5
2016-03-02T07:21:28.550Z,5
2016-03-02T07:22:28.505Z,5
2016-03-02T07:23:28.523Z,5
2016-03-02T07:24:28.511Z,5
2016-03-02T07:25:28.514Z,5
2016-03-02T07:26:28.547Z,5
2016-03-02T07:27:28.535Z,5
2016-03-02T07:28:28.537Z,5
2016-03-02T07:29:28.556Z,5
2016-03-02T07:30:28.559Z,5
2016-03-02T07:31:28.405Z,5
2016-03-02T07:32:28.564Z,5
2016-03-02T07:33:28.566Z,5
2016-03-02T07:34:28.570Z,5
2016-03-02T07:35:28.589Z,5
2016-03-02T07:36:28.575Z,5
2016-03-02T07:37:28.594Z,5
2016-03-02T07:38:28.596Z,5
2016-03-02T07:39:28.614Z,10
2016-03-02T07:40:28.616Z,10
2016-03-02T07:41:28.619Z,10
2016-03-02T07:42:28.607Z,10
2016-03-02T07:43:28.624Z,10
2016-03-02T07:44:28.628Z,10
2016-03-02T07:45:28.630Z,5
2016-03-02T07:46:28.633Z,5
2016-03-02T07:47:28.651Z,10
2016-03-02T07:48:28.638Z,10
2016-03-02T07:49:28.657Z,10
2016-03-02T07:50:28.660Z,10
2016-03-02T07:51:28.693Z,10
2016-03-02T07:52:28.679Z,10
2016-03-02T07:53:28.682Z,10
2016-03-02T07:54:28.670Z,10
2016-03-02T07:55:28.687Z,15
2016-03-02T07:56:28.690Z,15
2016-03-02T07:57:28.756Z,15
2016-03-02T07:58:28.712Z,15
2016-03-02T07:59:28.714Z,15
2016-03-02T08:00:28.576Z,15
2016-03-02T08:01:28.720Z,15
2016-03-02T08:02:28.738Z,15
2016-03-02T08:03:28.741Z,15
2016-03-02T08:04:28.978Z,15
2016-03-02T08:05:28.747Z,15
2016-03-02T08:06:28.797Z,15
2016-03-02T08:07:28.752Z,10
2016-03-02T08:08:28.755Z,10
2016-03-02T08:09:28.773Z,10
2016-03-02T08:10:28.635Z,10
2016-03-02T08:11:28.778Z,10
2016-03-02T08:12:28.813Z,10
2016-03-02T08:13:28.800Z,10
2016-03-02T08:14:28.802Z,10
2016-03-02T08:15:28.804Z,10
2016-03-02T08:16:28.823Z,10
2016-03-02T08:17:28.826Z,10
2016-03-02T08:18:28.844Z,15
2016-03-02T08:19:28.847Z,15
2016-03-02T08:20:28.850Z,15
2016-03-02T08:21:28.930Z,15
2016-03-02T08:22:28.871Z,15
2016-03-02T08:23:28.857Z,15
2016-03-02T08:24:28.860Z,10
2016-03-02T08:25:28.878Z,10
2016-03-02T08:26:28.881Z,10
2016-03-02T08:27:28.899Z,10
2016-03-02T08:28:28.902Z,10
2016-03-02T08:29:28.905Z,15
2016-03-02T08:30:28.907Z,15
2016-03-02T08:31:28.926Z,15
2016-03-02T08:32:28.913Z,15
2016-03-02T08:33:28.931Z,15
2016-03-02T08:34:28.934Z,10
2016-03-02T08:35:28.952Z,10
2016-03-02T08:36:29.002Z,10
2016-03-02T08:37:28.948Z,10
2016-03-02T08:38:28.937Z,10
2016-03-02T08:39:28.939Z,15
2016-03-02T08:40:28.926Z,15
2016-03-02T08:41:28.914Z,15
2016-03-02T08:42:28.890Z,15
2016-03-02T08:43:28.902Z,15
2016-03-02T08:44:28.900Z,20
2016-03-02T08:45:28.960Z,15
2016-03-02T08:46:28.910Z,15
2016-03-02T08:47:28.910Z,15
2016-03-02T08:48:28.927Z,10
2016-03-02T08:49:28.942Z,15
2016-03-02T08:50:28.929Z,15
2016-03-02T08:51:29.007Z,15
2016-03-02T08:52:28.945Z,15
2016-03-02T08:53:28.947Z,15
2016-03-02T08:54:28.949Z,15
2016-03-02T08:55:28.951Z,15
2016-03-02T08:56:28.953Z,15
2016-03-02T08:57:28.987Z,15
2016-03-02T08:58:28.834Z,15
2016-03-02T08:59:28.977Z,15
2016-03-02T09:00:28.979Z,10
2016-03-02T09:01:28.998Z,10
2016-03-02T09:02:29.001Z,15
2016-03-02T09:03:29.018Z,15
2016-03-02T09:04:29.037Z,10
2016-03-02T09:05:28.884Z,10
2016-03-02T09:06:29.043Z,10
2016-03-02T09:07:29.046Z,10
2016-03-02T09:08:29.048Z,10
2016-03-02T09:09:29.051Z,10
2016-03-02T09:10:29.068Z,10
2016-03-02T09:11:29.103Z,10
2016-03-02T09:12:29.059Z,5
2016-03-02T09:13:28.920Z,5
2016-03-02T09:14:29.095Z,5
2016-03-02T09:15:29.082Z,5
2016-03-02T09:16:29.084Z,0
2016-03-02T09:17:29.088Z,0
2016-03-02T09:18:28.965Z,5
2016-03-02T09:19:29.140Z,5
2016-03-02T09:20:29.128Z,5
2016-03-02T09:21:28.380Z,5
2016-03-02T09:22:29.133Z,5
2016-03-02T09:23:29.135Z,5
2016-03-02T09:24:29.153Z,5
2016-03-02T09:25:29.141Z,5
2016-03-02T09:26:29.159Z,5
2016-03-02T09:27:29.161Z,5
2016-03-02T09:28:29.164Z,5
2016-03-02T09:29:29.183Z,10
2016-03-02T09:30:29.186Z,5
2016-03-02T09:31:29.204Z,10
2016-03-02T09:32:29.207Z,10
2016-03-02T09:33:29.209Z,10
2016-03-02T09:34:29.212Z,10
2016-03-02T09:35:29.215Z,10
2016-03-02T09:36:29.217Z,15
2016-03-02T09:37:29.236Z,15
2016-03-02T09:38:29.238Z,20
2016-03-02T09:39:29.257Z,15
2016-03-02T09:40:29.244Z,15
2016-03-02T09:41:29.262Z,10
2016-03-02T09:42:29.265Z,10
2016-03-02T09:43:29.282Z,10
2016-03-02T09:44:29.270Z,10
2016-03-02T09:45:29.319Z,10
2016-03-02T09:46:29.275Z,10
2016-03-02T09:47:29.309Z,10
2016-03-02T09:48:29.295Z,10
2016-03-02T09:49:29.298Z,5
2016-03-02T09:50:29.301Z,10
2016-03-02T09:51:29.351Z,10
2016-03-02T09:52:29.323Z,10
2016-03-02T09:53:29.388Z,10
2016-03-02T09:54:29.344Z,10
2016-03-02T09:55:29.377Z,10
2016-03-02T09:56:29.349Z,10
2016-03-02T09:57:29.335Z,5
2016-03-02T09:58:29.369Z,5
2016-03-02T09:59:29.388Z,5
2016-03-02T10:00:29.375Z,5
2016-03-02T10:01:29.377Z,5
2016-03-02T10:02:29.413Z,5
2016-03-02T10:03:29.415Z,5
2016-03-02T10:04:29.449Z,5
2016-03-02T10:05:29.420Z,10
2016-03-02T10:06:29.423Z,10
2016-03-02T10:07:29.426Z,10
2016-03-02T10:08:29.428Z,10
2016-03-02T10:09:29.447Z,15
2016-03-02T10:10:29.449Z,15
2016-03-02T10:11:29.468Z,15
2016-03-02T10:12:29.298Z,20
2016-03-02T10:13:29.504Z,20
2016-03-02T10:14:29.475Z,25
2016-03-02T10:15:57.712Z,30
2016-03-02T10:16:29.481Z,35
2016-03-02T10:17:29.530Z,40
2016-03-02T10:18:29.501Z,40
2016-03-02T10:19:29.536Z,45
2016-03-02T10:20:29.507Z,50
2016-03-02T10:21:29.542Z,55
2016-03-02T10:22:29.528Z,65
2016-03-02T10:23:29.547Z,70
2016-03-02T10:24:29.534Z,95
2016-03-02T10:25:29.567Z,95
2016-03-02T10:26:29.555Z,65
2016-03-02T10:27:29.588Z,65
2016-03-02T10:28:29.575Z,50
2016-03-02T10:29:29.422Z,50
2016-03-02T10:30:29.581Z,55
2016-03-02T10:31:29.584Z,45
2016-03-02T10:32:29.602Z,35
2016-03-02T10:33:29.605Z,35
2016-03-02T10:34:29.591Z,40
2016-03-02T10:35:29.610Z,45
2016-03-02T10:36:29.628Z,45
2016-03-02T10:37:29.632Z,40
2016-03-02T10:38:29.634Z,40
2016-03-02T10:39:29.668Z,45
2016-03-02T10:40:29.671Z,55
2016-03-02T10:41:29.658Z,65
2016-03-02T10:42:29.676Z,70
2016-03-02T10:43:28.929Z,75
2016-03-02T10:44:29.728Z,80
2016-03-02T10:45:29.699Z,75
2016-03-02T10:46:29.718Z,75
2016-03-02T10:47:29.689Z,75
2016-03-02T10:48:29.739Z,70
2016-03-02T10:49:29.695Z,80
2016-03-02T10:50:29.744Z,80
2016-03-02T10:51:29.715Z,75
2016-03-02T10:52:29.734Z,80
2016-03-02T10:53:29.752Z,75
2016-03-02T10:54:29.739Z,75
2016-03-02T10:55:29.773Z,80
2016-03-02T10:56:29.761Z,85
2016-03-02T10:57:29.795Z,75
2016-03-02T10:58:29.766Z,75
2016-03-02T10:59:29.800Z,70
2016-03-02T11:00:29.786Z,80
2016-03-02T11:01:29.836Z,85
2016-03-02T11:02:29.824Z,95
2016-03-02T11:03:29.810Z,95
2016-03-02T11:04:29.814Z,90
2016-03-02T11:05:29.863Z,95
2016-03-02T11:06:29.834Z,85
2016-03-02T11:07:29.838Z,75
2016-03-02T11:08:29.886Z,75
2016-03-02T11:09:29.857Z,75
2016-03-02T11:10:29.876Z,70
2016-03-02T11:11:29.863Z,65
2016-03-02T11:12:29.897Z,60
2016-03-02T11:13:29.868Z,60
2016-03-02T11:14:29.902Z,65
2016-03-02T11:15:29.874Z,65
2016-03-02T11:16:29.892Z,55
2016-03-02T11:17:29.910Z,50
2016-03-02T11:18:29.788Z,45
2016-03-02T11:19:29.916Z,45
2016-03-02T11:20:29.934Z,50
2016-03-02T11:21:29.921Z,45
2016-03-02T11:22:29.939Z,60
2016-03-02T11:23:29.958Z,65
2016-03-02T11:24:29.945Z,65
2016-03-02T11:25:29.979Z,65
2016-03-02T11:26:29.951Z,65
2016-03-02T11:27:29.969Z,60
2016-03-02T11:28:29.972Z,65
2016-03-02T11:29:30.036Z,60
2016-03-02T11:30:30.024Z,60
2016-03-02T11:31:29.995Z,60
2016-03-02T11:32:30.030Z,70
2016-03-02T11:33:30.000Z,70
2016-03-02T11:34:30.097Z,70
2016-03-02T11:35:30.022Z,70
2016-03-02T11:36:30.055Z,65
2016-03-02T11:37:30.339Z,60
2016-03-02T11:38:30.077Z,60
2016-03-02T11:39:30.049Z,60
2016-03-02T11:40:30.082Z,60
2016-03-02T11:41:30.053Z,60
2016-03-02T11:42:30.087Z,55
2016-03-02T11:43:30.074Z,50
2016-03-02T11:44:30.093Z,55
2016-03-02T11:45:30.096Z,60
2016-03-02T11:46:30.113Z,60
2016-03-02T11:47:30.101Z,60
2016-03-02T11:48:30.103Z,55
2016-03-02T11:49:30.121Z,65
2016-03-02T11:50:30.124Z,65
2016-03-02T11:51:30.111Z,65
2016-03-02T11:52:30.130Z,65
2016-03-02T11:53:30.164Z,65
2016-03-02T11:54:30.151Z,65
2016-03-02T11:55:30.153Z,55
2016-03-02T11:56:30.172Z,60
2016-03-02T11:57:30.175Z,55
2016-03-02T11:58:30.192Z,55
2016-03-02T11:59:30.180Z,55
2016-03-02T12:00:30.183Z,55
2016-03-02T12:01:30.200Z,50
2016-03-02T12:02:30.220Z,50
2016-03-02T12:03:30.206Z,40
2016-03-02T12:04:30.255Z,35
2016-03-02T12:05:30.220Z,40
2016-03-02T12:06:30.098Z,40
2016-03-02T12:07:30.242Z,40
2016-03-02T12:08:30.245Z,35
2016-03-02T12:09:30.248Z,40
2016-03-02T12:10:30.250Z,40
2016-03-02T12:11:30.253Z,55
2016-03-02T12:12:30.271Z,55
2016-03-02T12:13:30.289Z,60
2016-03-02T12:14:30.276Z,60
2016-03-02T12:15:30.278Z,55
2016-03-02T12:16:30.298Z,50
2016-03-02T12:17:30.300Z,60
2016-03-02T12:18:30.334Z,60
2016-03-02T12:19:30.321Z,65
2016-03-02T12:20:30.339Z,65
2016-03-02T12:21:30.358Z,55
2016-03-02T12:22:30.345Z,60
2016-03-02T12:23:30.332Z,60
2016-03-02T12:24:30.553Z,60
2016-03-02T12:25:30.384Z,65
2016-03-02T12:26:30.371Z,60
2016-03-02T12:27:30.374Z,60
2016-03-02T12:28:30.391Z,60
2016-03-02T12:29:30.379Z,65
2016-03-02T12:30:30.382Z,60
2016-03-02T12:31:30.399Z,55
2016-03-02T12:32:30.402Z,50
2016-03-02T12:33:30.405Z,50
2016-03-02T12:34:30.424Z,50
2016-03-02T12:35:30.410Z,45
2016-03-02T12:36:30.430Z,40
2016-03-02T12:37:30.431Z,40
2016-03-02T12:38:30.435Z,40
2016-03-02T12:39:30.454Z,35
2016-03-02T12:40:30.456Z,35
2016-03-02T12:41:30.473Z,40
2016-03-02T12:42:30.476Z,35
2016-03-02T12:43:30.479Z,35
2016-03-02T12:44:30.498Z,25
2016-03-02T12:45:30.500Z,30
2016-03-02T12:46:30.503Z,35
2016-03-02T12:47:30.506Z,35
2016-03-02T12:48:30.509Z,35
2016-03-02T12:49:30.511Z,35
2016-03-02T12:50:30.530Z,35
2016-03-02T12:51:30.564Z,35
2016-03-02T12:52:30.567Z,30
2016-03-02T12:53:30.584Z,35
2016-03-02T12:54:30.586Z,35
2016-03-02T12:55:30.543Z,30
2016-03-02T12:56:30.562Z,35
2016-03-02T12:57:30.611Z,35
2016-03-02T12:58:30.583Z,35
2016-03-02T12:59:30.632Z,40
2016-03-02T13:00:31.182Z,50
2016-03-02T13:01:30.591Z,50
2016-03-02T13:02:30.624Z,55
2016-03-02T13:03:30.611Z,60
2016-03-02T13:04:30.630Z,60
2016-03-02T13:05:30.617Z,50
2016-03-02T13:06:30.652Z,50
2016-03-02T13:07:30.685Z,40
2016-03-02T13:08:30.657Z,35
2016-03-02T13:09:30.660Z,35
2016-03-02T13:10:31.193Z,35
2016-03-02T13:11:30.649Z,35
2016-03-02T13:12:30.683Z,35
2016-03-02T13:13:30.670Z,35
2016-03-02T13:14:30.704Z,35
2016-03-02T13:15:30.691Z,30
2016-03-02T13:16:30.709Z,30
2016-03-02T13:17:30.728Z,40
2016-03-02T13:18:30.715Z,55
2016-03-02T13:19:30.717Z,55
2016-03-02T13:20:30.720Z,50
2016-03-02T13:21:30.754Z,45
2016-03-02T13:22:30.617Z,60
2016-03-02T13:23:30.744Z,435
2016-03-02T13:24:30.778Z,50
2016-03-02T13:25:30.750Z,45
2016-03-02T13:26:30.767Z,45
2016-03-02T13:27:30.770Z,40
2016-03-02T13:28:30.789Z,40
2016-03-02T13:29:30.775Z,40
2016-03-02T13:30:30.809Z,40
2016-03-02T13:31:30.812Z,40
2016-03-02T13:32:30.847Z,40
2016-03-02T13:33:30.817Z,40
2016-03-02T13:34:30.820Z,40
2016-03-02T13:35:30.823Z,35
2016-03-02T13:36:30.919Z,40
2016-03-02T13:37:30.844Z,35
2016-03-02T13:38:30.846Z,35
2016-03-02T13:39:30.866Z,35
2016-03-02T13:40:30.852Z,40
2016-03-02T13:41:30.870Z,35
2016-03-02T13:42:30.874Z,35
2016-03-02T13:43:30.891Z,35
2016-03-02T13:44:30.894Z,35
2016-03-02T13:45:30.882Z,35
2016-03-02T13:46:30.884Z,40
2016-03-02T13:47:30.902Z,110
2016-03-02T13:48:30.920Z,60
2016-03-02T13:49:30.924Z,55
2016-03-02T13:50:30.926Z,50
2016-03-02T13:51:30.944Z,45
2016-03-02T13:52:30.963Z,45
2016-03-02T13:53:30.965Z,45
2016-03-02T13:54:30.968Z,45
2016-03-02T13:55:30.955Z,45
2016-03-02T13:56:30.973Z,40
2016-03-02T13:57:30.961Z,40
2016-03-02T13:58:30.994Z,40
2016-03-02T13:59:30.997Z,40
2016-03-02T14:00:30.984Z,40
2016-03-02T14:01:31.003Z,40
2016-03-02T14:02:30.989Z,40
2016-03-02T14:03:31.023Z,40
2016-03-02T14:04:31.025Z,40
2016-03-02T14:05:30.872Z,40
2016-03-02T14:06:31.032Z,40
2016-03-02T14:07:31.050Z,40
2016-03-02T14:08:31.053Z,40
2016-03-02T14:09:31.040Z,40
2016-03-02T14:10:31.090Z,40
2016-03-02T14:11:31.062Z,40
2016-03-02T14:12:31.081Z,40
2016-03-02T14:13:31.083Z,40
2016-03-02T14:14:31.100Z,40
2016-03-02T14:15:31.089Z,40
2016-03-02T14:16:31.091Z,40
2016-03-02T14:17:31.109Z,30
2016-03-02T14:18:31.111Z,30
2016-03-02T14:19:30.974Z,30
2016-03-02T14:20:30.961Z,30
2016-03-02T14:21:31.136Z,30
2016-03-02T14:22:31.139Z,30
2016-03-02T14:23:31.188Z,30
2016-03-02T14:24:32.121Z,30
2016-03-02T14:25:37.633Z,25
2016-03-02T14:26:31.868Z,25
2016-03-02T14:27:31.292Z,30
2016-03-02T14:28:31.726Z,30
2016-03-02T14:29:32.223Z,30
2016-03-02T14:30:31.008Z,30
2016-03-02T14:31:31.203Z,30
2016-03-02T14:32:31.017Z,30